sensor_id;sensor_type;location;lat;lon;timestamp;pressure;altitude;pressure_sealevel;temperature;humidity
70302;BME280;57706;56.326;43.882;2022-08-02T00:00:05;100994.59;;;16.16;79.46
70302;BME280;57706;56.326;43.882;2022-08-02T00:02:31;100993.13;;;16.14;79.53
70302;BME280;57706;56.326;43.882;2022-08-02T00:04:57;100986.34;;;16.11;79.80
70302;BME280;57706;56.326;43.882;2022-08-02T00:07:23;100991.03;;;16.09;79.68
70302;BME280;57706;56.326;43.882;2022-08-02T00:09:49;100994.69;;;16.08;79.73
70302;BME280;57706;56.326;43.882;2022-08-02T00:12:15;100982.78;;;16.04;79.93
70302;BME280;57706;56.326;43.882;2022-08-02T00:14:41;100986.44;;;16.03;80.23
70302;BME280;57706;56.326;43.882;2022-08-02T00:17:07;100991.13;;;16.01;80.26
70302;BME280;57706;56.326;43.882;2022-08-02T00:19:32;100990.50;;;15.99;80.21
70302;BME280;57706;56.326;43.882;2022-08-02T00:21:58;100988.81;;;15.98;80.28
70302;BME280;57706;56.326;43.882;2022-08-02T00:24:24;100984.53;;;15.96;80.55
70302;BME280;57706;56.326;43.882;2022-08-02T00:26:50;100984.72;;;15.95;80.47
70302;BME280;57706;56.326;43.882;2022-08-02T00:29:16;100988.38;;;15.94;80.65
70302;BME280;57706;56.326;43.882;2022-08-02T00:31:42;100994.88;;;15.91;80.83
70302;BME280;57706;56.326;43.882;2022-08-02T00:34:08;100993.19;;;15.90;80.75
70302;BME280;57706;56.326;43.882;2022-08-02T00:36:33;100994.19;;;15.89;80.91
70302;BME280;57706;56.326;43.882;2022-08-02T00:38:59;100997.03;;;15.88;80.99
70302;BME280;57706;56.326;43.882;2022-08-02T00:41:25;100993.53;;;15.87;81.01
70302;BME280;57706;56.326;43.882;2022-08-02T00:43:51;100989.25;;;15.86;81.00
70302;BME280;57706;56.326;43.882;2022-08-02T00:46:19;100995.56;;;15.85;80.89
70302;BME280;57706;56.326;43.882;2022-08-02T00:48:45;100995.56;;;15.85;80.84
70302;BME280;57706;56.326;43.882;2022-08-02T00:51:12;100998.22;;;15.85;80.99
70302;BME280;57706;56.326;43.882;2022-08-02T00:53:38;100989.44;;;15.85;81.10
70302;BME280;57706;56.326;43.882;2022-08-02T00:56:04;101000.88;;;15.85;81.00
70302;BME280;57706;56.326;43.882;2022-08-02T00:58:30;100990.25;;;15.85;80.95
70302;BME280;57706;56.326;43.882;2022-08-02T01:00:56;100992.28;;;15.83;80.83
70302;BME280;57706;56.326;43.882;2022-08-02T01:03:25;100988.63;;;15.84;80.88
70302;BME280;57706;56.326;43.882;2022-08-02T01:05:51;100993.91;;;15.84;80.69
70302;BME280;57706;56.326;43.882;2022-08-02T01:08:17;100996.75;;;15.82;80.85
70302;BME280;57706;56.326;43.882;2022-08-02T01:10:43;100990.63;;;15.82;80.84
70302;BME280;57706;56.326;43.882;2022-08-02T01:13:28;100984.69;;;15.80;80.86
70302;BME280;57706;56.326;43.882;2022-08-02T01:16:05;100984.69;;;15.80;80.96
70302;BME280;57706;56.326;43.882;2022-08-02T01:18:43;100986.97;;;15.83;80.60
70302;BME280;57706;56.326;43.882;2022-08-02T01:30:00;100987.56;;;15.93;79.95
70302;BME280;57706;56.326;43.882;2022-08-02T01:32:50;100989.66;;;15.98;79.72
70302;BME280;57706;56.326;43.882;2022-08-02T01:35:26;100986.63;;;16.01;79.50
70302;BME280;57706;56.326;43.882;2022-08-02T01:38:02;100985.25;;;16.05;79.42
70302;BME280;57706;56.326;43.882;2022-08-02T01:40:33;100988.81;;;16.13;79.23
70302;BME280;57706;56.326;43.882;2022-08-02T01:43:01;100983.41;;;16.21;78.83
70302;BME280;57706;56.326;43.882;2022-08-02T01:45:36;100988.41;;;16.31;78.52
70302;BME280;57706;56.326;43.882;2022-08-02T01:48:04;100993.31;;;16.49;77.88
70302;BME280;57706;56.326;43.882;2022-08-02T01:50:33;100988.72;;;16.58;77.35
70302;BME280;57706;56.326;43.882;2022-08-02T01:53:08;100990.38;;;16.59;77.29
70302;BME280;57706;56.326;43.882;2022-08-02T01:55:52;100994.50;;;16.61;77.16
70302;BME280;57706;56.326;43.882;2022-08-02T01:58:37;100992.28;;;16.65;77.10
70302;BME280;57706;56.326;43.882;2022-08-02T02:01:05;100994.38;;;16.70;76.78
70302;BME280;57706;56.326;43.882;2022-08-02T02:03:32;100988.66;;;16.73;76.58
70302;BME280;57706;56.326;43.882;2022-08-02T02:06:00;100991.78;;;16.76;76.28
70302;BME280;57706;56.326;43.882;2022-08-02T02:08:35;100986.34;;;16.85;76.27
70302;BME280;57706;56.326;43.882;2022-08-02T02:11:03;100984.31;;;16.87;76.10
70302;BME280;57706;56.326;43.882;2022-08-02T02:13:30;100986.22;;;16.93;75.75
70302;BME280;57706;56.326;43.882;2022-08-02T02:15:57;100988.78;;;17.01;75.35
70302;BME280;57706;56.326;43.882;2022-08-02T02:18:28;100988.81;;;17.08;75.31
70302;BME280;57706;56.326;43.882;2022-08-02T02:20:54;100992.53;;;17.14;75.13
70302;BME280;57706;56.326;43.882;2022-08-02T02:23:21;101000.38;;;17.22;74.80
70302;BME280;57706;56.326;43.882;2022-08-02T02:25:48;100997.56;;;17.30;74.53
70302;BME280;57706;56.326;43.882;2022-08-02T02:28:26;101001.75;;;17.40;74.37
70302;BME280;57706;56.326;43.882;2022-08-02T02:31:06;101003.47;;;17.54;73.69
70302;BME280;57706;56.326;43.882;2022-08-02T02:33:34;101012.75;;;17.65;73.37
70302;BME280;57706;56.326;43.882;2022-08-02T02:36:21;101017.13;;;17.73;72.99
70302;BME280;57706;56.326;43.882;2022-08-02T02:38:49;101017.53;;;17.77;72.97
70302;BME280;57706;56.326;43.882;2022-08-02T02:41:18;101021.88;;;17.84;72.61
70302;BME280;57706;56.326;43.882;2022-08-02T02:43:46;101019.47;;;17.89;72.33
70302;BME280;57706;56.326;43.882;2022-08-02T02:46:13;101018.66;;;17.96;72.44
70302;BME280;57706;56.326;43.882;2022-08-02T02:48:41;101019.91;;;18.00;72.10
70302;BME280;57706;56.326;43.882;2022-08-02T02:51:09;101017.69;;;18.03;72.09
70302;BME280;57706;56.326;43.882;2022-08-02T02:53:35;101018.94;;;18.08;72.08
70302;BME280;57706;56.326;43.882;2022-08-02T02:56:02;101024.09;;;18.09;71.93
70302;BME280;57706;56.326;43.882;2022-08-02T02:58:30;101027.97;;;18.13;71.88
70302;BME280;57706;56.326;43.882;2022-08-02T03:00:56;101022.28;;;18.16;71.73
70302;BME280;57706;56.326;43.882;2022-08-02T03:03:43;101031.50;;;18.21;71.77
70302;BME280;57706;56.326;43.882;2022-08-02T03:06:09;101027.44;;;18.25;71.58
70302;BME280;57706;56.326;43.882;2022-08-02T03:08:35;101032.16;;;18.29;71.73
70302;BME280;57706;56.326;43.882;2022-08-02T03:11:01;101028.50;;;18.37;71.31
70302;BME280;57706;56.326;43.882;2022-08-02T03:13:27;101031.41;;;18.49;71.01
70302;BME280;57706;56.326;43.882;2022-08-02T03:15:54;101029.41;;;18.58;70.66
70302;BME280;57706;56.326;43.882;2022-08-02T03:18:32;101032.91;;;18.65;70.63
70302;BME280;57706;56.326;43.882;2022-08-02T03:21:03;101031.88;;;18.80;70.10
70302;BME280;57706;56.326;43.882;2022-08-02T03:23:49;101030.91;;;18.94;69.46
70302;BME280;57706;56.326;43.882;2022-08-02T03:26:15;101023.78;;;19.02;69.01
70302;BME280;57706;56.326;43.882;2022-08-02T03:28:41;101036.47;;;19.13;68.73
70302;BME280;57706;56.326;43.882;2022-08-02T03:31:08;101036.09;;;19.23;68.39
70302;BME280;57706;56.326;43.882;2022-08-02T03:33:34;101032.81;;;19.34;68.05
70302;BME280;57706;56.326;43.882;2022-08-02T03:36:04;101034.44;;;19.42;67.92
70302;BME280;57706;56.326;43.882;2022-08-02T03:38:31;101041.81;;;19.53;67.62
70302;BME280;57706;56.326;43.882;2022-08-02T03:40:59;101034.63;;;19.61;67.13
70302;BME280;57706;56.326;43.882;2022-08-02T03:43:27;101040.34;;;19.71;66.63
70302;BME280;57706;56.326;43.882;2022-08-02T03:45:54;101038.09;;;19.81;66.45
70302;BME280;57706;56.326;43.882;2022-08-02T03:48:22;101040.53;;;19.90;66.04
70302;BME280;57706;56.326;43.882;2022-08-02T03:50:49;101039.72;;;19.96;65.80
70302;BME280;57706;56.326;43.882;2022-08-02T03:53:15;101034.38;;;20.03;65.91
70302;BME280;57706;56.326;43.882;2022-08-02T03:55:43;101036.38;;;20.14;65.44
70302;BME280;57706;56.326;43.882;2022-08-02T03:58:18;101039.66;;;20.23;64.87
70302;BME280;57706;56.326;43.882;2022-08-02T04:00:45;101037.78;;;20.30;64.77
70302;BME280;57706;56.326;43.882;2022-08-02T04:03:11;101037.78;;;20.30;64.69
70302;BME280;57706;56.326;43.882;2022-08-02T04:05:55;101043.28;;;20.35;64.56
70302;BME280;57706;56.326;43.882;2022-08-02T04:08:21;101032.78;;;20.41;64.57
70302;BME280;57706;56.326;43.882;2022-08-02T04:10:47;101042.44;;;20.42;64.62
70302;BME280;57706;56.326;43.882;2022-08-02T04:13:35;101043.44;;;20.47;64.36
70302;BME280;57706;56.326;43.882;2022-08-02T04:16:13;101045.91;;;20.49;64.28
70302;BME280;57706;56.326;43.882;2022-08-02T04:18:49;101046.69;;;20.56;64.12
70302;BME280;57706;56.326;43.882;2022-08-02T04:21:18;101040.31;;;20.57;63.15
70302;BME280;57706;56.326;43.882;2022-08-02T04:23:46;101038.44;;;20.65;62.86
70302;BME280;57706;56.326;43.882;2022-08-02T04:26:13;101040.22;;;20.71;62.47
70302;BME280;57706;56.326;43.882;2022-08-02T04:28:41;101042.22;;;20.82;62.36
70302;BME280;57706;56.326;43.882;2022-08-02T04:31:07;101041.16;;;20.90;62.05
70302;BME280;57706;56.326;43.882;2022-08-02T04:33:34;101037.25;;;20.93;61.91
70302;BME280;57706;56.326;43.882;2022-08-02T04:36:01;101040.91;;;20.98;61.90
70302;BME280;57706;56.326;43.882;2022-08-02T04:38:27;101044.16;;;21.07;61.93
70302;BME280;57706;56.326;43.882;2022-08-02T04:40:54;101043.66;;;21.17;60.88
70302;BME280;57706;56.326;43.882;2022-08-02T04:43:21;101039.44;;;21.28;60.14
70302;BME280;57706;56.326;43.882;2022-08-02T04:45:49;101047.72;;;21.26;58.61
70302;BME280;57706;56.326;43.882;2022-08-02T04:48:16;101033.81;;;21.36;58.80
70302;BME280;57706;56.326;43.882;2022-08-02T04:50:42;101040.53;;;21.45;58.26
70302;BME280;57706;56.326;43.882;2022-08-02T04:53:07;101040.03;;;21.55;57.72
70302;BME280;57706;56.326;43.882;2022-08-02T04:55:33;101039.53;;;21.65;56.70
70302;BME280;57706;56.326;43.882;2022-08-02T04:57:59;101040.59;;;21.64;56.98
70302;BME280;57706;56.326;43.882;2022-08-02T05:00:27;101043.59;;;21.75;56.69
70302;BME280;57706;56.326;43.882;2022-08-02T05:02:56;101046.72;;;21.90;56.23
70302;BME280;57706;56.326;43.882;2022-08-02T05:05:22;101042.13;;;21.97;55.96
70302;BME280;57706;56.326;43.882;2022-08-02T05:07:48;101038.09;;;22.07;55.38
70302;BME280;57706;56.326;43.882;2022-08-02T05:10:14;101042.28;;;22.21;54.80
70302;BME280;57706;56.326;43.882;2022-08-02T05:12:40;101042.09;;;22.35;54.74
70302;BME280;57706;56.326;43.882;2022-08-02T05:15:07;101040.16;;;22.42;54.00
70302;BME280;57706;56.326;43.882;2022-08-02T05:17:33;101045.00;;;22.52;53.50
70302;BME280;57706;56.326;43.882;2022-08-02T05:19:59;101038.59;;;22.53;53.46
70302;BME280;57706;56.326;43.882;2022-08-02T05:22:25;101043.78;;;22.66;53.00
70302;BME280;57706;56.326;43.882;2022-08-02T05:24:51;101037.84;;;22.76;52.97
70302;BME280;57706;56.326;43.882;2022-08-02T05:27:17;101036.69;;;22.72;52.68
70302;BME280;57706;56.326;43.882;2022-08-02T05:29:43;101039.75;;;22.88;52.79
70302;BME280;57706;56.326;43.882;2022-08-02T05:32:08;101037.34;;;22.98;52.33
70302;BME280;57706;56.326;43.882;2022-08-02T05:34:34;101033.03;;;22.97;51.12
70302;BME280;57706;56.326;43.882;2022-08-02T05:37:00;101038.75;;;23.13;51.18
70302;BME280;57706;56.326;43.882;2022-08-02T05:39:26;101035.19;;;23.43;50.08
70302;BME280;57706;56.326;43.882;2022-08-02T05:41:52;101029.09;;;23.83;49.49
70302;BME280;57706;56.326;43.882;2022-08-02T05:44:18;101027.06;;;24.14;48.32
70302;BME280;57706;56.326;43.882;2022-08-02T05:46:43;101033.41;;;24.37;47.44
70302;BME280;57706;56.326;43.882;2022-08-02T05:49:09;101026.69;;;24.81;45.67
70302;BME280;57706;56.326;43.882;2022-08-02T05:51:37;101023.50;;;25.18;45.87
70302;BME280;57706;56.326;43.882;2022-08-02T05:54:14;101025.91;;;25.71;45.21
70302;BME280;57706;56.326;43.882;2022-08-02T05:56:58;101024.78;;;26.11;41.93
70302;BME280;57706;56.326;43.882;2022-08-02T06:01:59;101022.53;;;31.01;33.45
70302;BME280;57706;56.326;43.882;2022-08-02T06:04:33;101016.19;;;28.94;35.78
70302;BME280;57706;56.326;43.882;2022-08-02T06:07:08;101020.28;;;27.91;38.50
70302;BME280;57706;56.326;43.882;2022-08-02T06:09:34;101018.38;;;27.43;39.96
70302;BME280;57706;56.326;43.882;2022-08-02T06:12:04;101016.50;;;27.01;40.86
70302;BME280;57706;56.326;43.882;2022-08-02T06:14:32;101020.13;;;26.84;41.40
70302;BME280;57706;56.326;43.882;2022-08-02T06:17:02;101014.31;;;26.37;40.85
70302;BME280;57706;56.326;43.882;2022-08-02T06:19:31;101019.56;;;26.05;41.96
70302;BME280;57706;56.326;43.882;2022-08-02T06:21:58;101019.41;;;26.11;42.33
70302;BME280;57706;56.326;43.882;2022-08-02T06:24:43;101018.56;;;26.61;41.09
70302;BME280;57706;56.326;43.882;2022-08-02T06:27:13;101020.84;;;29.80;35.85
70302;BME280;57706;56.326;43.882;2022-08-02T06:29:58;101013.75;;;35.19;25.84
70302;BME280;57706;56.326;43.882;2022-08-02T06:32:25;101002.06;;;38.06;23.48
70302;BME280;57706;56.326;43.882;2022-08-02T06:34:51;101003.50;;;40.12;20.72
70302;BME280;57706;56.326;43.882;2022-08-02T06:40:05;100985.59;;;44.22;16.87
70302;BME280;57706;56.326;43.882;2022-08-02T06:42:51;100983.72;;;45.60;15.17
70302;BME280;57706;56.326;43.882;2022-08-02T06:45:22;100979.53;;;46.53;14.76
70302;BME280;57706;56.326;43.882;2022-08-02T06:47:48;100976.53;;;48.22;13.87
70302;BME280;57706;56.326;43.882;2022-08-02T06:50:14;100976.38;;;48.83;13.10
70302;BME280;57706;56.326;43.882;2022-08-02T06:52:40;100967.25;;;49.48;12.20
70302;BME280;57706;56.326;43.882;2022-08-02T06:55:06;100961.53;;;50.58;11.63
70302;BME280;57706;56.326;43.882;2022-08-02T06:57:33;100962.69;;;51.79;10.35
70302;BME280;57706;56.326;43.882;2022-08-02T06:59:59;100940.84;;;52.66;10.34
70302;BME280;57706;56.326;43.882;2022-08-02T07:02:31;100946.44;;;52.66;10.18
70302;BME280;57706;56.326;43.882;2022-08-02T07:04:58;100948.09;;;52.34;9.68
70302;BME280;57706;56.326;43.882;2022-08-02T07:07:23;100944.22;;;52.61;9.10
70302;BME280;57706;56.326;43.882;2022-08-02T07:09:51;100934.19;;;52.59;9.76
70302;BME280;57706;56.326;43.882;2022-08-02T07:12:18;100940.47;;;51.88;9.74
70302;BME280;57706;56.326;43.882;2022-08-02T07:14:43;100935.97;;;51.57;9.33
70302;BME280;57706;56.326;43.882;2022-08-02T07:17:10;100938.97;;;51.30;9.44
70302;BME280;57706;56.326;43.882;2022-08-02T07:19:37;100932.00;;;52.38;8.50
70302;BME280;57706;56.326;43.882;2022-08-02T07:22:03;100930.41;;;53.74;8.57
70302;BME280;57706;56.326;43.882;2022-08-02T07:24:28;100930.03;;;54.33;8.08
70302;BME280;57706;56.326;43.882;2022-08-02T07:26:54;100925.72;;;54.86;7.82
70302;BME280;57706;56.326;43.882;2022-08-02T07:29:20;100923.50;;;54.58;7.84
70302;BME280;57706;56.326;43.882;2022-08-02T07:31:46;100926.44;;;53.97;7.94
70302;BME280;57706;56.326;43.882;2022-08-02T07:34:12;100921.66;;;54.87;7.83
70302;BME280;57706;56.326;43.882;2022-08-02T07:36:38;100924.56;;;54.52;7.55
70302;BME280;57706;56.326;43.882;2022-08-02T07:39:04;100926.44;;;55.09;7.96
70302;BME280;57706;56.326;43.882;2022-08-02T07:41:30;100913.41;;;56.12;7.27
70302;BME280;57706;56.326;43.882;2022-08-02T07:43:55;100906.63;;;56.56;6.54
70302;BME280;57706;56.326;43.882;2022-08-02T07:46:21;100907.28;;;56.23;6.84
70302;BME280;57706;56.326;43.882;2022-08-02T07:48:47;100914.66;;;56.30;6.65
70302;BME280;57706;56.326;43.882;2022-08-02T07:51:14;100908.84;;;56.05;7.20
70302;BME280;57706;56.326;43.882;2022-08-02T07:53:40;100911.19;;;56.97;6.71
70302;BME280;57706;56.326;43.882;2022-08-02T07:56:06;100906.03;;;55.96;6.75
70302;BME280;57706;56.326;43.882;2022-08-02T07:58:32;100898.69;;;55.98;6.26
70302;BME280;57706;56.326;43.882;2022-08-02T08:00:57;100901.06;;;56.19;6.65
70302;BME280;57706;56.326;43.882;2022-08-02T08:03:23;100884.22;;;53.88;7.95
70302;BME280;57706;56.326;43.882;2022-08-02T08:05:49;100890.44;;;52.92;8.31
70302;BME280;57706;56.326;43.882;2022-08-02T08:08:17;100892.75;;;52.38;8.62
70302;BME280;57706;56.326;43.882;2022-08-02T08:10:43;100886.66;;;53.37;8.63
70302;BME280;57706;56.326;43.882;2022-08-02T08:13:09;100885.81;;;54.46;8.08
70302;BME280;57706;56.326;43.882;2022-08-02T08:15:40;100881.59;;;55.74;7.15
70302;BME280;57706;56.326;43.882;2022-08-02T08:18:06;100884.28;;;56.06;7.27
70302;BME280;57706;56.326;43.882;2022-08-02T08:20:32;100882.69;;;57.53;6.60
70302;BME280;57706;56.326;43.882;2022-08-02T08:22:58;100884.97;;;58.78;5.73
70302;BME280;57706;56.326;43.882;2022-08-02T08:25:24;100881.22;;;59.02;5.53
70302;BME280;57706;56.326;43.882;2022-08-02T08:27:51;100882.97;;;58.64;5.88
70302;BME280;57706;56.326;43.882;2022-08-02T08:30:18;100869.78;;;57.12;6.32
70302;BME280;57706;56.326;43.882;2022-08-02T08:32:44;100872.56;;;53.76;8.26
70302;BME280;57706;56.326;43.882;2022-08-02T08:35:10;100871.03;;;55.28;7.10
70302;BME280;57706;56.326;43.882;2022-08-02T08:37:55;100881.13;;;58.31;6.34
70302;BME280;57706;56.326;43.882;2022-08-02T08:40:23;100881.88;;;58.76;6.21
70302;BME280;57706;56.326;43.882;2022-08-02T08:42:50;100872.31;;;58.59;6.26
70302;BME280;57706;56.326;43.882;2022-08-02T08:45:15;100871.69;;;60.09;5.07
70302;BME280;57706;56.326;43.882;2022-08-02T08:47:43;100868.69;;;60.83;4.52
70302;BME280;57706;56.326;43.882;2022-08-02T08:50:12;100861.00;;;60.57;5.55
70302;BME280;57706;56.326;43.882;2022-08-02T08:52:52;100856.56;;;56.23;6.86
70302;BME280;57706;56.326;43.882;2022-08-02T08:55:22;100856.94;;;51.99;8.89
70302;BME280;57706;56.326;43.882;2022-08-02T08:57:49;100858.06;;;48.84;10.78
70302;BME280;57706;56.326;43.882;2022-08-02T09:00:16;100858.56;;;46.19;12.63
70302;BME280;57706;56.326;43.882;2022-08-02T09:02:43;100851.22;;;45.06;12.23
70302;BME280;57706;56.326;43.882;2022-08-02T09:05:10;100854.25;;;42.24;14.90
70302;BME280;57706;56.326;43.882;2022-08-02T09:07:36;100856.94;;;40.79;16.95
70302;BME280;57706;56.326;43.882;2022-08-02T09:13:16;100851.69;;;38.95;18.01
70302;BME280;57706;56.326;43.882;2022-08-02T09:15:51;100856.44;;;39.64;16.90
70302;BME280;57706;56.326;43.882;2022-08-02T09:18:38;100855.81;;;42.76;14.22
70302;BME280;57706;56.326;43.882;2022-08-02T09:21:06;100860.56;;;47.98;10.96
70302;BME280;57706;56.326;43.882;2022-08-02T09:23:44;100852.88;;;47.63;11.81
70302;BME280;57706;56.326;43.882;2022-08-02T09:26:15;100849.84;;;44.71;13.18
70302;BME280;57706;56.326;43.882;2022-08-02T09:28:45;100842.72;;;41.52;14.89
70302;BME280;57706;56.326;43.882;2022-08-02T09:31:15;100850.88;;;43.19;13.86
70302;BME280;57706;56.326;43.882;2022-08-02T09:33:43;100840.75;;;42.19;15.46
70302;BME280;57706;56.326;43.882;2022-08-02T09:36:11;100846.47;;;40.69;16.81
70302;BME280;57706;56.326;43.882;2022-08-02T09:38:39;100845.66;;;39.43;17.77
70302;BME280;57706;56.326;43.882;2022-08-02T09:41:19;100836.59;;;42.06;16.13
70302;BME280;57706;56.326;43.882;2022-08-02T09:43:45;100834.97;;;42.05;15.08
70302;BME280;57706;56.326;43.882;2022-08-02T09:46:15;100847.66;;;40.03;16.66
70302;BME280;57706;56.326;43.882;2022-08-02T09:48:52;100845.91;;;40.11;17.69
70302;BME280;57706;56.326;43.882;2022-08-02T09:54:18;100842.16;;;48.11;11.45
70302;BME280;57706;56.326;43.882;2022-08-02T09:57:03;100842.22;;;53.23;8.72
70302;BME280;57706;56.326;43.882;2022-08-02T09:59:29;100825.63;;;49.80;10.67
70302;BME280;57706;56.326;43.882;2022-08-02T10:01:57;100821.69;;;45.97;12.52
70302;BME280;57706;56.326;43.882;2022-08-02T10:04:25;100825.22;;;47.31;11.61
70302;BME280;57706;56.326;43.882;2022-08-02T10:06:54;100821.41;;;48.89;10.37
70302;BME280;57706;56.326;43.882;2022-08-02T10:09:21;100819.66;;;42.31;13.65
70302;BME280;57706;56.326;43.882;2022-08-02T10:11:48;100828.31;;;41.39;15.15
70302;BME280;57706;56.326;43.882;2022-08-02T10:14:14;100826.25;;;46.87;11.15
70302;BME280;57706;56.326;43.882;2022-08-02T10:16:41;100816.47;;;50.03;9.55
70302;BME280;57706;56.326;43.882;2022-08-02T10:19:08;100820.50;;;52.16;8.44
70302;BME280;57706;56.326;43.882;2022-08-02T10:21:44;100826.91;;;54.20;6.88
70302;BME280;57706;56.326;43.882;2022-08-02T10:24:16;100816.44;;;49.31;9.48
70302;BME280;57706;56.326;43.882;2022-08-02T10:26:44;100818.25;;;50.94;8.67
70302;BME280;57706;56.326;43.882;2022-08-02T10:29:16;100819.19;;;54.12;6.98
70302;BME280;57706;56.326;43.882;2022-08-02T10:31:47;100811.81;;;52.40;7.02
70302;BME280;57706;56.326;43.882;2022-08-02T10:34:17;100811.50;;;56.04;5.97
70302;BME280;57706;56.326;43.882;2022-08-02T10:36:45;100815.91;;;58.19;5.15
70302;BME280;57706;56.326;43.882;2022-08-02T10:39:12;100812.13;;;54.52;6.44
70302;BME280;57706;56.326;43.882;2022-08-02T10:41:59;100807.78;;;52.41;7.42
70302;BME280;57706;56.326;43.882;2022-08-02T10:44:29;100804.38;;;53.02;6.53
70302;BME280;57706;56.326;43.882;2022-08-02T10:47:31;100809.88;;;53.79;6.87
70302;BME280;57706;56.326;43.882;2022-08-02T10:49:59;100801.84;;;55.08;6.08
70302;BME280;57706;56.326;43.882;2022-08-02T10:52:28;100805.38;;;53.82;6.62
70302;BME280;57706;56.326;43.882;2022-08-02T10:55:13;100798.38;;;54.95;6.24
70302;BME280;57706;56.326;43.882;2022-08-02T10:57:39;100794.06;;;56.34;6.00
70302;BME280;57706;56.326;43.882;2022-08-02T11:00:24;100791.41;;;58.46;5.55
70302;BME280;57706;56.326;43.882;2022-08-02T11:02:51;100787.78;;;59.64;4.65
70302;BME280;57706;56.326;43.882;2022-08-02T11:05:31;100793.78;;;59.04;4.78
70302;BME280;57706;56.326;43.882;2022-08-02T11:07:58;100789.47;;;60.41;4.60
70302;BME280;57706;56.326;43.882;2022-08-02T11:13:04;100783.34;;;60.98;3.50
70302;BME280;57706;56.326;43.882;2022-08-02T11:18:12;100788.84;;;60.26;4.71
70302;BME280;57706;56.326;43.882;2022-08-02T11:20:38;100782.81;;;60.44;4.76
70302;BME280;57706;56.326;43.882;2022-08-02T11:25:59;100785.34;;;61.87;3.94
70302;BME280;57706;56.326;43.882;2022-08-02T11:28:25;100778.34;;;60.00;4.24
70302;BME280;57706;56.326;43.882;2022-08-02T11:30:56;100770.13;;;53.46;7.42
70302;BME280;57706;56.326;43.882;2022-08-02T11:33:29;100773.25;;;46.24;11.37
70302;BME280;57706;56.326;43.882;2022-08-02T11:36:03;100776.91;;;42.78;13.51
70302;BME280;57706;56.326;43.882;2022-08-02T11:38:29;100771.81;;;41.30;14.98
70302;BME280;57706;56.326;43.882;2022-08-02T11:40:55;100782.97;;;40.10;15.94
70302;BME280;57706;56.326;43.882;2022-08-02T11:43:23;100782.47;;;41.31;14.99
70302;BME280;57706;56.326;43.882;2022-08-02T11:45:52;100778.47;;;44.42;12.92
70302;BME280;57706;56.326;43.882;2022-08-02T11:48:34;100776.69;;;42.60;14.01
70302;BME280;57706;56.326;43.882;2022-08-02T11:51:21;100785.34;;;39.79;16.29
70302;BME280;57706;56.326;43.882;2022-08-02T11:53:54;100781.59;;;40.52;15.74
70302;BME280;57706;56.326;43.882;2022-08-02T11:56:28;100780.75;;;41.23;15.57
70302;BME280;57706;56.326;43.882;2022-08-02T11:59:04;100778.84;;;47.17;11.83
70302;BME280;57706;56.326;43.882;2022-08-02T12:01:30;100777.66;;;45.77;12.75
70302;BME280;57706;56.326;43.882;2022-08-02T12:03:56;100775.94;;;42.63;14.47
70302;BME280;57706;56.326;43.882;2022-08-02T12:06:26;100782.31;;;39.68;16.07
70302;BME280;57706;56.326;43.882;2022-08-02T12:09:06;100780.34;;;38.46;17.88
70302;BME280;57706;56.326;43.882;2022-08-02T12:11:33;100774.66;;;37.33;18.57
70302;BME280;57706;56.326;43.882;2022-08-02T12:14:01;100776.25;;;43.61;13.92
70302;BME280;57706;56.326;43.882;2022-08-02T12:16:47;100764.56;;;46.03;12.66
70302;BME280;57706;56.326;43.882;2022-08-02T12:19:31;100767.94;;;44.06;13.15
70302;BME280;57706;56.326;43.882;2022-08-02T12:24:40;100765.84;;;43.89;13.14
70302;BME280;57706;56.326;43.882;2022-08-02T12:27:07;100766.63;;;44.49;12.89
70302;BME280;57706;56.326;43.882;2022-08-02T12:29:37;100770.53;;;48.50;10.81
70302;BME280;57706;56.326;43.882;2022-08-02T12:32:04;100762.94;;;51.98;8.30
70302;BME280;57706;56.326;43.882;2022-08-02T12:34:31;100767.31;;;53.81;7.40
70302;BME280;57706;56.326;43.882;2022-08-02T12:37:08;100761.69;;;50.50;8.52
70302;BME280;57706;56.326;43.882;2022-08-02T12:39:43;100764.19;;;45.87;11.88
70302;BME280;57706;56.326;43.882;2022-08-02T12:42:13;100763.75;;;42.37;14.60
70302;BME280;57706;56.326;43.882;2022-08-02T12:44:56;100760.09;;;40.57;16.27
70302;BME280;57706;56.326;43.882;2022-08-02T12:47:24;100767.22;;;38.51;18.07
70302;BME280;57706;56.326;43.882;2022-08-02T12:52:37;100770.53;;;36.25;21.59
70302;BME280;57706;56.326;43.882;2022-08-02T12:55:22;100764.88;;;35.64;21.88
70302;BME280;57706;56.326;43.882;2022-08-02T12:57:53;100774.91;;;37.62;19.86
70302;BME280;57706;56.326;43.882;2022-08-02T13:00:29;100772.81;;;36.44;20.51
70302;BME280;57706;56.326;43.882;2022-08-02T13:02:55;100776.63;;;35.65;21.56
70302;BME280;57706;56.326;43.882;2022-08-02T13:05:22;100778.72;;;35.06;21.94
70302;BME280;57706;56.326;43.882;2022-08-02T13:08:07;100778.78;;;34.66;22.11
70302;BME280;57706;56.326;43.882;2022-08-02T13:10:33;100780.53;;;38.90;18.91
70302;BME280;57706;56.326;43.882;2022-08-02T13:12:59;100763.91;;;42.48;15.16
70302;BME280;57706;56.326;43.882;2022-08-02T13:15:26;100764.41;;;44.76;13.35
70302;BME280;57706;56.326;43.882;2022-08-02T13:17:52;100770.25;;;41.12;15.35
70302;BME280;57706;56.326;43.882;2022-08-02T13:20:18;100768.31;;;37.42;18.75
70302;BME280;57706;56.326;43.882;2022-08-02T13:22:44;100774.56;;;36.78;19.04
70302;BME280;57706;56.326;43.882;2022-08-02T13:25:10;100765.91;;;36.46;19.62
70302;BME280;57706;56.326;43.882;2022-08-02T13:27:36;100770.03;;;35.75;21.37